sensor_id;sensor_type;location;lat;lon;timestamp;P1;durP1;ratioP1;P2;durP2;ratioP2
11344;SDS011;5727;42.600;23.028;2023-08-08T00:01:48;1.20;;;1.10;;
11344;SDS011;5727;42.600;23.028;2023-08-08T00:04:15;1.43;;;1.33;;
11344;SDS011;5727;42.600;23.028;2023-08-08T00:06:41;1.47;;;1.27;;
11344;SDS011;5727;42.600;23.028;2023-08-08T00:09:09;1.43;;;1.27;;
11344;SDS011;5727;42.600;23.028;2023-08-08T00:11:36;2.23;;;1.10;;
11344;SDS011;5727;42.600;23.028;2023-08-08T00:14:03;1.10;;;1.00;;
11344;SDS011;5727;42.600;23.028;2023-08-08T00:16:30;1.83;;;1.37;;
11344;SDS011;5727;42.600;23.028;2023-08-08T00:18:56;1.90;;;0.90;;
11344;SDS011;5727;42.600;23.028;2023-08-08T00:21:23;1.73;;;1.00;;
11344;SDS011;5727;42.600;23.028;2023-08-08T00:23:50;1.50;;;1.13;;
11344;SDS011;5727;42.600;23.028;2023-08-08T00:26:18;1.50;;;1.07;;
11344;SDS011;5727;42.600;23.028;2023-08-08T00:28:45;1.17;;;1.07;;
11344;SDS011;5727;42.600;23.028;2023-08-08T00:31:11;1.37;;;1.10;;
11344;SDS011;5727;42.600;23.028;2023-08-08T00:33:38;2.00;;;1.20;;
11344;SDS011;5727;42.600;23.028;2023-08-08T00:36:05;2.40;;;1.30;;
11344;SDS011;5727;42.600;23.028;2023-08-08T00:38:32;1.47;;;1.27;;
11344;SDS011;5727;42.600;23.028;2023-08-08T00:40:58;1.27;;;1.17;;
11344;SDS011;5727;42.600;23.028;2023-08-08T00:43:27;0.87;;;0.87;;
11344;SDS011;5727;42.600;23.028;2023-08-08T00:45:54;2.77;;;1.23;;
11344;SDS011;5727;42.600;23.028;2023-08-08T00:48:20;1.03;;;0.90;;
11344;SDS011;5727;42.600;23.028;2023-08-08T00:50:47;1.03;;;1.00;;
11344;SDS011;5727;42.600;23.028;2023-08-08T00:53:16;1.53;;;1.00;;
11344;SDS011;5727;42.600;23.028;2023-08-08T00:55:44;0.83;;;0.83;;
11344;SDS011;5727;42.600;23.028;2023-08-08T00:58:11;1.10;;;1.00;;
11344;SDS011;5727;42.600;23.028;2023-08-08T01:00:40;1.30;;;1.20;;
11344;SDS011;5727;42.600;23.028;2023-08-08T01:03:07;1.57;;;1.30;;
11344;SDS011;5727;42.600;23.028;2023-08-08T01:05:35;1.20;;;1.10;;
11344;SDS011;5727;42.600;23.028;2023-08-08T01:08:06;1.17;;;1.10;;
11344;SDS011;5727;42.600;23.028;2023-08-08T01:10:34;2.23;;;1.13;;
11344;SDS011;5727;42.600;23.028;2023-08-08T01:13:05;1.37;;;1.27;;
11344;SDS011;5727;42.600;23.028;2023-08-08T01:15:36;2.07;;;1.33;;
11344;SDS011;5727;42.600;23.028;2023-08-08T01:18:06;1.27;;;1.00;;
11344;SDS011;5727;42.600;23.028;2023-08-08T01:20:35;1.60;;;1.20;;
11344;SDS011;5727;42.600;23.028;2023-08-08T01:23:06;2.20;;;1.03;;
11344;SDS011;5727;42.600;23.028;2023-08-08T01:25:39;1.40;;;1.30;;
11344;SDS011;5727;42.600;23.028;2023-08-08T01:28:07;1.60;;;1.50;;
11344;SDS011;5727;42.600;23.028;2023-08-08T01:33:20;1.03;;;1.00;;
11344;SDS011;5727;42.600;23.028;2023-08-08T01:35:50;1.60;;;1.43;;
11344;SDS011;5727;42.600;23.028;2023-08-08T01:38:30;1.20;;;1.07;;
11344;SDS011;5727;42.600;23.028;2023-08-08T01:41:01;2.10;;;1.40;;
11344;SDS011;5727;42.600;23.028;2023-08-08T01:43:31;4.57;;;1.23;;
11344;SDS011;5727;42.600;23.028;2023-08-08T01:45:59;1.77;;;1.40;;
11344;SDS011;5727;42.600;23.028;2023-08-08T01:48:28;1.20;;;1.10;;
11344;SDS011;5727;42.600;23.028;2023-08-08T01:50:55;1.77;;;1.53;;
11344;SDS011;5727;42.600;23.028;2023-08-08T01:53:22;1.80;;;1.33;;
11344;SDS011;5727;42.600;23.028;2023-08-08T01:55:49;1.30;;;1.20;;
11344;SDS011;5727;42.600;23.028;2023-08-08T01:58:18;1.40;;;1.30;;
11344;SDS011;5727;42.600;23.028;2023-08-08T02:00:45;1.50;;;1.40;;
11344;SDS011;5727;42.600;23.028;2023-08-08T02:03:12;3.73;;;1.33;;
11344;SDS011;5727;42.600;23.028;2023-08-08T02:05:39;1.60;;;1.40;;
11344;SDS011;5727;42.600;23.028;2023-08-08T02:08:06;1.50;;;1.27;;
11344;SDS011;5727;42.600;23.028;2023-08-08T02:10:32;1.57;;;1.47;;
11344;SDS011;5727;42.600;23.028;2023-08-08T02:12:59;2.17;;;1.00;;
11344;SDS011;5727;42.600;23.028;2023-08-08T02:15:27;2.07;;;1.33;;
11344;SDS011;5727;42.600;23.028;2023-08-08T02:17:54;2.60;;;1.60;;
11344;SDS011;5727;42.600;23.028;2023-08-08T02:20:20;1.63;;;1.53;;
11344;SDS011;5727;42.600;23.028;2023-08-08T02:22:47;1.37;;;1.33;;
11344;SDS011;5727;42.600;23.028;2023-08-08T02:25:14;2.60;;;1.53;;
11344;SDS011;5727;42.600;23.028;2023-08-08T02:27:41;2.20;;;1.80;;
11344;SDS011;5727;42.600;23.028;2023-08-08T02:30:08;1.60;;;1.50;;
11344;SDS011;5727;42.600;23.028;2023-08-08T02:32:36;1.57;;;1.47;;
11344;SDS011;5727;42.600;23.028;2023-08-08T02:35:03;2.30;;;1.70;;
11344;SDS011;5727;42.600;23.028;2023-08-08T02:37:30;3.33;;;1.63;;
11344;SDS011;5727;42.600;23.028;2023-08-08T02:39:59;2.13;;;1.77;;
11344;SDS011;5727;42.600;23.028;2023-08-08T02:42:25;1.87;;;1.70;;
11344;SDS011;5727;42.600;23.028;2023-08-08T02:44:52;2.23;;;1.77;;
11344;SDS011;5727;42.600;23.028;2023-08-08T02:47:19;1.83;;;1.73;;
11344;SDS011;5727;42.600;23.028;2023-08-08T02:49:47;1.50;;;1.40;;
11344;SDS011;5727;42.600;23.028;2023-08-08T02:52:14;2.00;;;1.90;;
11344;SDS011;5727;42.600;23.028;2023-08-08T02:54:40;2.00;;;1.80;;
11344;SDS011;5727;42.600;23.028;2023-08-08T02:57:07;2.30;;;1.90;;
11344;SDS011;5727;42.600;23.028;2023-08-08T02:59:35;3.67;;;2.10;;
11344;SDS011;5727;42.600;23.028;2023-08-08T03:02:03;2.00;;;1.90;;
11344;SDS011;5727;42.600;23.028;2023-08-08T03:04:30;2.00;;;1.90;;
11344;SDS011;5727;42.600;23.028;2023-08-08T03:06:58;2.53;;;1.90;;
11344;SDS011;5727;42.600;23.028;2023-08-08T03:09:26;2.37;;;2.13;;
11344;SDS011;5727;42.600;23.028;2023-08-08T03:11:53;1.87;;;1.77;;
11344;SDS011;5727;42.600;23.028;2023-08-08T03:14:20;2.23;;;2.07;;
11344;SDS011;5727;42.600;23.028;2023-08-08T03:16:47;2.27;;;1.87;;
11344;SDS011;5727;42.600;23.028;2023-08-08T03:19:13;3.40;;;2.17;;
11344;SDS011;5727;42.600;23.028;2023-08-08T03:21:40;1.80;;;1.70;;
11344;SDS011;5727;42.600;23.028;2023-08-08T03:24:08;2.87;;;1.97;;
11344;SDS011;5727;42.600;23.028;2023-08-08T03:26:35;2.00;;;1.77;;
11344;SDS011;5727;42.600;23.028;2023-08-08T03:29:02;3.40;;;2.30;;
11344;SDS011;5727;42.600;23.028;2023-08-08T03:31:29;2.63;;;2.40;;
11344;SDS011;5727;42.600;23.028;2023-08-08T03:33:55;2.83;;;2.00;;
11344;SDS011;5727;42.600;23.028;2023-08-08T03:36:22;2.20;;;2.00;;
11344;SDS011;5727;42.600;23.028;2023-08-08T03:38:49;2.07;;;1.93;;
11344;SDS011;5727;42.600;23.028;2023-08-08T03:41:17;2.10;;;1.90;;
11344;SDS011;5727;42.600;23.028;2023-08-08T03:43:44;3.43;;;2.23;;
11344;SDS011;5727;42.600;23.028;2023-08-08T03:46:10;2.60;;;2.40;;
11344;SDS011;5727;42.600;23.028;2023-08-08T03:48:37;2.53;;;2.00;;
11344;SDS011;5727;42.600;23.028;2023-08-08T03:51:04;3.30;;;3.00;;
11344;SDS011;5727;42.600;23.028;2023-08-08T03:53:32;3.43;;;2.70;;
11344;SDS011;5727;42.600;23.028;2023-08-08T03:55:58;3.30;;;3.00;;
11344;SDS011;5727;42.600;23.028;2023-08-08T03:58:26;3.50;;;2.90;;
11344;SDS011;5727;42.600;23.028;2023-08-08T04:00:53;2.90;;;2.60;;
11344;SDS011;5727;42.600;23.028;2023-08-08T04:03:20;2.90;;;2.70;;
11344;SDS011;5727;42.600;23.028;2023-08-08T04:05:47;3.40;;;2.83;;
11344;SDS011;5727;42.600;23.028;2023-08-08T04:08:14;3.33;;;2.90;;
11344;SDS011;5727;42.600;23.028;2023-08-08T04:10:41;2.60;;;2.40;;
11344;SDS011;5727;42.600;23.028;2023-08-08T04:13:08;3.80;;;2.87;;
11344;SDS011;5727;42.600;23.028;2023-08-08T04:15:37;3.37;;;3.10;;
11344;SDS011;5727;42.600;23.028;2023-08-08T04:18:04;3.43;;;3.13;;
11344;SDS011;5727;42.600;23.028;2023-08-08T04:20:31;4.30;;;3.90;;
11344;SDS011;5727;42.600;23.028;2023-08-08T04:22:58;4.10;;;3.77;;
11344;SDS011;5727;42.600;23.028;2023-08-08T04:25:25;3.70;;;3.40;;
11344;SDS011;5727;42.600;23.028;2023-08-08T04:27:52;3.63;;;3.33;;
11344;SDS011;5727;42.600;23.028;2023-08-08T04:30:19;3.70;;;3.40;;
11344;SDS011;5727;42.600;23.028;2023-08-08T04:32:47;3.63;;;3.33;;
11344;SDS011;5727;42.600;23.028;2023-08-08T04:35:14;4.83;;;3.60;;
11344;SDS011;5727;42.600;23.028;2023-08-08T04:37:41;7.23;;;3.67;;
11344;SDS011;5727;42.600;23.028;2023-08-08T04:40:08;3.73;;;3.43;;
11344;SDS011;5727;42.600;23.028;2023-08-08T04:42:36;5.43;;;3.57;;
11344;SDS011;5727;42.600;23.028;2023-08-08T04:45:03;3.50;;;3.20;;
11344;SDS011;5727;42.600;23.028;2023-08-08T04:47:31;3.47;;;3.17;;
11344;SDS011;5727;42.600;23.028;2023-08-08T04:49:59;3.90;;;3.50;;
11344;SDS011;5727;42.600;23.028;2023-08-08T04:52:26;3.57;;;3.27;;
11344;SDS011;5727;42.600;23.028;2023-08-08T04:54:53;4.80;;;4.07;;
11344;SDS011;5727;42.600;23.028;2023-08-08T04:57:19;4.33;;;3.60;;
11344;SDS011;5727;42.600;23.028;2023-08-08T04:59:46;6.20;;;3.90;;
11344;SDS011;5727;42.600;23.028;2023-08-08T05:02:13;3.67;;;3.30;;
11344;SDS011;5727;42.600;23.028;2023-08-08T05:04:40;3.10;;;2.80;;
11344;SDS011;5727;42.600;23.028;2023-08-08T05:07:08;3.27;;;3.07;;
11344;SDS011;5727;42.600;23.028;2023-08-08T05:09:35;5.13;;;3.10;;
11344;SDS011;5727;42.600;23.028;2023-08-08T05:12:02;3.33;;;3.10;;
11344;SDS011;5727;42.600;23.028;2023-08-08T05:14:29;3.00;;;2.80;;
11344;SDS011;5727;42.600;23.028;2023-08-08T05:16:56;2.83;;;2.63;;
11344;SDS011;5727;42.600;23.028;2023-08-08T05:19:22;2.50;;;2.30;;
11344;SDS011;5727;42.600;23.028;2023-08-08T05:21:50;2.27;;;2.13;;
11344;SDS011;5727;42.600;23.028;2023-08-08T05:24:18;3.13;;;2.80;;
11344;SDS011;5727;42.600;23.028;2023-08-08T05:26:46;2.97;;;2.63;;
11344;SDS011;5727;42.600;23.028;2023-08-08T05:29:13;4.60;;;2.47;;
11344;SDS011;5727;42.600;23.028;2023-08-08T05:31:39;2.87;;;2.60;;
11344;SDS011;5727;42.600;23.028;2023-08-08T05:34:06;2.97;;;2.47;;
11344;SDS011;5727;42.600;23.028;2023-08-08T05:36:33;3.00;;;2.70;;
11344;SDS011;5727;42.600;23.028;2023-08-08T05:39:00;2.23;;;2.07;;
11344;SDS011;5727;42.600;23.028;2023-08-08T05:41:28;2.97;;;2.37;;
11344;SDS011;5727;42.600;23.028;2023-08-08T05:43:55;2.60;;;2.40;;
11344;SDS011;5727;42.600;23.028;2023-08-08T05:46:21;2.93;;;2.47;;
11344;SDS011;5727;42.600;23.028;2023-08-08T05:48:48;2.93;;;2.70;;
11344;SDS011;5727;42.600;23.028;2023-08-08T05:51:15;2.83;;;2.63;;
11344;SDS011;5727;42.600;23.028;2023-08-08T05:53:42;2.63;;;2.43;;
11344;SDS011;5727;42.600;23.028;2023-08-08T05:56:08;2.90;;;2.70;;
11344;SDS011;5727;42.600;23.028;2023-08-08T05:58:37;2.93;;;2.73;;
11344;SDS011;5727;42.600;23.028;2023-08-08T06:01:03;4.20;;;2.33;;
11344;SDS011;5727;42.600;23.028;2023-08-08T06:03:31;2.70;;;2.50;;
11344;SDS011;5727;42.600;23.028;2023-08-08T06:05:58;2.83;;;2.63;;
11344;SDS011;5727;42.600;23.028;2023-08-08T06:08:25;2.40;;;2.20;;
11344;SDS011;5727;42.600;23.028;2023-08-08T06:10:51;2.67;;;2.47;;
11344;SDS011;5727;42.600;23.028;2023-08-08T06:13:18;2.23;;;2.03;;
11344;SDS011;5727;42.600;23.028;2023-08-08T06:15:46;2.43;;;2.23;;
11344;SDS011;5727;42.600;23.028;2023-08-08T06:18:13;2.57;;;2.37;;
11344;SDS011;5727;42.600;23.028;2023-08-08T06:20:40;3.83;;;2.43;;
11344;SDS011;5727;42.600;23.028;2023-08-08T06:23:07;2.63;;;2.40;;
11344;SDS011;5727;42.600;23.028;2023-08-08T06:25:34;2.50;;;2.30;;
11344;SDS011;5727;42.600;23.028;2023-08-08T06:28:00;2.30;;;2.10;;
11344;SDS011;5727;42.600;23.028;2023-08-08T06:30:27;1.70;;;1.60;;
11344;SDS011;5727;42.600;23.028;2023-08-08T06:32:55;1.60;;;1.50;;
11344;SDS011;5727;42.600;23.028;2023-08-08T06:35:22;1.90;;;1.70;;
11344;SDS011;5727;42.600;23.028;2023-08-08T06:37:49;1.50;;;1.40;;
11344;SDS011;5727;42.600;23.028;2023-08-08T06:40:15;1.57;;;1.47;;
11344;SDS011;5727;42.600;23.028;2023-08-08T06:42:43;1.70;;;1.60;;
11344;SDS011;5727;42.600;23.028;2023-08-08T06:45:09;1.77;;;1.67;;
11344;SDS011;5727;42.600;23.028;2023-08-08T06:47:36;1.77;;;1.67;;
11344;SDS011;5727;42.600;23.028;2023-08-08T06:50:05;2.60;;;1.77;;
11344;SDS011;5727;42.600;23.028;2023-08-08T06:52:33;1.93;;;1.83;;
11344;SDS011;5727;42.600;23.028;2023-08-08T06:54:59;1.77;;;1.67;;
11344;SDS011;5727;42.600;23.028;2023-08-08T06:57:26;2.43;;;1.87;;
11344;SDS011;5727;42.600;23.028;2023-08-08T06:59:53;2.57;;;1.80;;
11344;SDS011;5727;42.600;23.028;2023-08-08T07:02:20;1.73;;;1.63;;
11344;SDS011;5727;42.600;23.028;2023-08-08T07:04:46;1.40;;;1.30;;
11344;SDS011;5727;42.600;23.028;2023-08-08T07:07:14;2.20;;;1.57;;
11344;SDS011;5727;42.600;23.028;2023-08-08T07:09:41;1.80;;;1.67;;
11344;SDS011;5727;42.600;23.028;2023-08-08T07:12:08;1.20;;;1.10;;
11344;SDS011;5727;42.600;23.028;2023-08-08T07:14:36;2.33;;;1.60;;
11344;SDS011;5727;42.600;23.028;2023-08-08T07:17:03;1.40;;;1.30;;
11344;SDS011;5727;42.600;23.028;2023-08-08T07:19:30;1.47;;;1.30;;
11344;SDS011;5727;42.600;23.028;2023-08-08T07:21:57;2.40;;;1.30;;
11344;SDS011;5727;42.600;23.028;2023-08-08T07:24:25;1.90;;;1.30;;
11344;SDS011;5727;42.600;23.028;2023-08-08T07:26:53;1.57;;;1.47;;
11344;SDS011;5727;42.600;23.028;2023-08-08T07:29:20;1.20;;;1.10;;
11344;SDS011;5727;42.600;23.028;2023-08-08T07:31:47;1.70;;;1.60;;
11344;SDS011;5727;42.600;23.028;2023-08-08T07:34:14;1.20;;;1.10;;
11344;SDS011;5727;42.600;23.028;2023-08-08T07:36:40;1.13;;;1.03;;
11344;SDS011;5727;42.600;23.028;2023-08-08T07:39:07;1.30;;;1.03;;
11344;SDS011;5727;42.600;23.028;2023-08-08T07:41:36;2.20;;;1.40;;
11344;SDS011;5727;42.600;23.028;2023-08-08T07:44:03;1.77;;;1.00;;
11344;SDS011;5727;42.600;23.028;2023-08-08T07:46:29;2.80;;;1.57;;
11344;SDS011;5727;42.600;23.028;2023-08-08T07:48:56;2.97;;;1.50;;
11344;SDS011;5727;42.600;23.028;2023-08-08T07:51:24;0.90;;;0.90;;
11344;SDS011;5727;42.600;23.028;2023-08-08T07:53:51;1.23;;;1.13;;
11344;SDS011;5727;42.600;23.028;2023-08-08T07:56:18;1.60;;;1.17;;
11344;SDS011;5727;42.600;23.028;2023-08-08T07:58:46;3.70;;;1.47;;
11344;SDS011;5727;42.600;23.028;2023-08-08T08:01:12;1.40;;;1.30;;
11344;SDS011;5727;42.600;23.028;2023-08-08T08:03:39;1.10;;;1.00;;
11344;SDS011;5727;42.600;23.028;2023-08-08T08:06:06;1.20;;;1.10;;
11344;SDS011;5727;42.600;23.028;2023-08-08T08:08:33;1.20;;;1.10;;
11344;SDS011;5727;42.600;23.028;2023-08-08T08:11:01;1.30;;;1.20;;
11344;SDS011;5727;42.600;23.028;2023-08-08T08:13:27;1.40;;;1.27;;
11344;SDS011;5727;42.600;23.028;2023-08-08T08:15:55;1.37;;;1.27;;
11344;SDS011;5727;42.600;23.028;2023-08-08T08:18:23;1.60;;;1.50;;
11344;SDS011;5727;42.600;23.028;2023-08-08T08:20:49;1.80;;;1.40;;
11344;SDS011;5727;42.600;23.028;2023-08-08T08:23:16;1.70;;;1.60;;
11344;SDS011;5727;42.600;23.028;2023-08-08T08:25:43;2.07;;;1.20;;
11344;SDS011;5727;42.600;23.028;2023-08-08T08:28:10;1.63;;;1.37;;
11344;SDS011;5727;42.600;23.028;2023-08-08T08:30:36;1.20;;;1.10;;
11344;SDS011;5727;42.600;23.028;2023-08-08T08:33:05;2.70;;;1.40;;
11344;SDS011;5727;42.600;23.028;2023-08-08T08:35:33;2.00;;;1.73;;
11344;SDS011;5727;42.600;23.028;2023-08-08T08:37:59;2.57;;;1.70;;
11344;SDS011;5727;42.600;23.028;2023-08-08T08:40:26;3.60;;;1.97;;
11344;SDS011;5727;42.600;23.028;2023-08-08T08:42:54;2.47;;;1.93;;
11344;SDS011;5727;42.600;23.028;2023-08-08T08:45:20;2.20;;;2.00;;
11344;SDS011;5727;42.600;23.028;2023-08-08T08:47:49;1.80;;;1.70;;
11344;SDS011;5727;42.600;23.028;2023-08-08T08:50:21;2.43;;;1.80;;
11344;SDS011;5727;42.600;23.028;2023-08-08T08:52:49;3.10;;;1.70;;
11344;SDS011;5727;42.600;23.028;2023-08-08T08:55:16;1.67;;;1.33;;
11344;SDS011;5727;42.600;23.028;2023-08-08T08:57:43;1.33;;;1.20;;
11344;SDS011;5727;42.600;23.028;2023-08-08T09:00:11;1.53;;;1.43;;
11344;SDS011;5727;42.600;23.028;2023-08-08T09:02:39;1.40;;;1.30;;
11344;SDS011;5727;42.600;23.028;2023-08-08T09:05:07;1.37;;;1.27;;
11344;SDS011;5727;42.600;23.028;2023-08-08T09:07:35;2.00;;;1.30;;
11344;SDS011;5727;42.600;23.028;2023-08-08T09:10:03;2.40;;;1.40;;
11344;SDS011;5727;42.600;23.028;2023-08-08T09:12:30;2.07;;;1.10;;
11344;SDS011;5727;42.600;23.028;2023-08-08T09:14:57;1.43;;;0.90;;
11344;SDS011;5727;42.600;23.028;2023-08-08T09:17:24;0.70;;;0.70;;
11344;SDS011;5727;42.600;23.028;2023-08-08T09:19:52;1.00;;;0.70;;
11344;SDS011;5727;42.600;23.028;2023-08-08T09:22:19;1.60;;;1.00;;
11344;SDS011;5727;42.600;23.028;2023-08-08T09:24:47;0.80;;;0.80;;
11344;SDS011;5727;42.600;23.028;2023-08-08T09:27:14;2.40;;;0.90;;
11344;SDS011;5727;42.600;23.028;2023-08-08T09:29:41;1.67;;;1.10;;
11344;SDS011;5727;42.600;23.028;2023-08-08T09:32:08;1.60;;;1.50;;
11344;SDS011;5727;42.600;23.028;2023-08-08T09:34:35;0.90;;;0.90;;
11344;SDS011;5727;42.600;23.028;2023-08-08T09:37:02;1.63;;;1.20;;
11344;SDS011;5727;42.600;23.028;2023-08-08T09:39:30;3.03;;;1.03;;
11344;SDS011;5727;42.600;23.028;2023-08-08T09:41:58;1.20;;;1.10;;
11344;SDS011;5727;42.600;23.028;2023-08-08T09:44:27;0.87;;;0.83;;
11344;SDS011;5727;42.600;23.028;2023-08-08T09:46:54;1.10;;;1.00;;
11344;SDS011;5727;42.600;23.028;2023-08-08T09:49:21;0.60;;;0.60;;
11344;SDS011;5727;42.600;23.028;2023-08-08T09:51:49;0.90;;;0.90;;
11344;SDS011;5727;42.600;23.028;2023-08-08T09:54:16;0.77;;;0.77;;
11344;SDS011;5727;42.600;23.028;2023-08-08T09:56:43;1.00;;;1.00;;
11344;SDS011;5727;42.600;23.028;2023-08-08T09:59:11;1.70;;;1.00;;
11344;SDS011;5727;42.600;23.028;2023-08-08T10:01:39;1.67;;;0.80;;
11344;SDS011;5727;42.600;23.028;2023-08-08T10:04:07;1.03;;;0.90;;
11344;SDS011;5727;42.600;23.028;2023-08-08T10:06:34;1.03;;;0.93;;
11344;SDS011;5727;42.600;23.028;2023-08-08T10:09:02;0.80;;;0.80;;
11344;SDS011;5727;42.600;23.028;2023-08-08T10:11:29;2.20;;;1.47;;
11344;SDS011;5727;42.600;23.028;2023-08-08T10:13:57;0.97;;;0.80;;
11344;SDS011;5727;42.600;23.028;2023-08-08T10:16:31;0.67;;;0.67;;
11344;SDS011;5727;42.600;23.028;2023-08-08T10:18:58;1.33;;;0.90;;
11344;SDS011;5727;42.600;23.028;2023-08-08T10:21:27;1.63;;;0.73;;
11344;SDS011;5727;42.600;23.028;2023-08-08T10:24:03;0.80;;;0.80;;
11344;SDS011;5727;42.600;23.028;2023-08-08T10:26:31;2.00;;;0.70;;
11344;SDS011;5727;42.600;23.028;2023-08-08T10:28:59;0.57;;;0.57;;
11344;SDS011;5727;42.600;23.028;2023-08-08T10:31:27;1.23;;;0.60;;
11344;SDS011;5727;42.600;23.028;2023-08-08T10:34:03;0.67;;;0.67;;
11344;SDS011;5727;42.600;23.028;2023-08-08T10:36:45;0.70;;;0.70;;
11344;SDS011;5727;42.600;23.028;2023-08-08T10:39:17;0.70;;;0.70;;
11344;SDS011;5727;42.600;23.028;2023-08-08T10:41:46;0.67;;;0.50;;
11344;SDS011;5727;42.600;23.028;2023-08-08T10:44:14;0.87;;;0.60;;
11344;SDS011;5727;42.600;23.028;2023-08-08T10:46:50;0.80;;;0.80;;
11344;SDS011;5727;42.600;23.028;2023-08-08T10:49:18;0.53;;;0.50;;
11344;SDS011;5727;42.600;23.028;2023-08-08T10:51:46;1.33;;;0.60;;
11344;SDS011;5727;42.600;23.028;2023-08-08T10:54:14;0.50;;;0.40;;
11344;SDS011;5727;42.600;23.028;2023-08-08T10:56:47;2.13;;;0.50;;
11344;SDS011;5727;42.600;23.028;2023-08-08T10:59:14;0.53;;;0.50;;
11344;SDS011;5727;42.600;23.028;2023-08-08T11:01:44;0.50;;;0.50;;
11344;SDS011;5727;42.600;23.028;2023-08-08T11:04:14;0.60;;;0.43;;
11344;SDS011;5727;42.600;23.028;2023-08-08T11:06:42;1.00;;;0.50;;
11344;SDS011;5727;42.600;23.028;2023-08-08T11:09:08;0.47;;;0.40;;
11344;SDS011;5727;42.600;23.028;2023-08-08T11:11:36;0.53;;;0.50;;
11344;SDS011;5727;42.600;23.028;2023-08-08T11:14:10;0.93;;;0.60;;
11344;SDS011;5727;42.600;23.028;2023-08-08T11:16:38;0.93;;;0.50;;
11344;SDS011;5727;42.600;23.028;2023-08-08T11:19:04;1.20;;;0.50;;
11344;SDS011;5727;42.600;23.028;2023-08-08T11:21:34;0.50;;;0.40;;
11344;SDS011;5727;42.600;23.028;2023-08-08T11:24:03;1.63;;;0.50;;
11344;SDS011;5727;42.600;23.028;2023-08-08T11:26:31;0.60;;;0.40;;
11344;SDS011;5727;42.600;23.028;2023-08-08T11:28:58;1.17;;;0.50;;
11344;SDS011;5727;42.600;23.028;2023-08-08T11:31:26;0.33;;;0.33;;
11344;SDS011;5727;42.600;23.028;2023-08-08T11:33:53;1.13;;;0.40;;
11344;SDS011;5727;42.600;23.028;2023-08-08T11:36:20;1.10;;;0.50;;
11344;SDS011;5727;42.600;23.028;2023-08-08T11:38:50;0.50;;;0.50;;
11344;SDS011;5727;42.600;23.028;2023-08-08T11:41:17;0.60;;;0.50;;
11344;SDS011;5727;42.600;23.028;2023-08-08T11:43:48;0.40;;;0.30;;
11344;SDS011;5727;42.600;23.028;2023-08-08T11:46:16;0.63;;;0.50;;
11344;SDS011;5727;42.600;23.028;2023-08-08T11:48:46;0.93;;;0.33;;
11344;SDS011;5727;42.600;23.028;2023-08-08T11:51:13;0.40;;;0.40;;
11344;SDS011;5727;42.600;23.028;2023-08-08T11:53:47;0.40;;;0.40;;
11344;SDS011;5727;42.600;23.028;2023-08-08T11:56:17;0.53;;;0.40;;
11344;SDS011;5727;42.600;23.028;2023-08-08T11:58:44;0.40;;;0.20;;
11344;SDS011;5727;42.600;23.028;2023-08-08T12:01:11;0.40;;;0.30;;
11344;SDS011;5727;42.600;23.028;2023-08-08T12:03:40;2.00;;;0.30;;
11344;SDS011;5727;42.600;23.028;2023-08-08T12:06:13;0.30;;;0.20;;
11344;SDS011;5727;42.600;23.028;2023-08-08T12:08:40;0.33;;;0.20;;
11344;SDS011;5727;42.600;23.028;2023-08-08T12:11:10;0.30;;;0.30;;
11344;SDS011;5727;42.600;23.028;2023-08-08T12:13:37;0.50;;;0.30;;
11344;SDS011;5727;42.600;23.028;2023-08-08T12:16:06;0.50;;;0.20;;
11344;SDS011;5727;42.600;23.028;2023-08-08T12:18:34;0.60;;;0.30;;
11344;SDS011;5727;42.600;23.028;2023-08-08T12:21:03;0.37;;;0.20;;
11344;SDS011;5727;42.600;23.028;2023-08-08T12:23:30;1.83;;;0.20;;
11344;SDS011;5727;42.600;23.028;2023-08-08T12:25:57;0.70;;;0.20;;
11344;SDS011;5727;42.600;23.028;2023-08-08T12:28:25;0.30;;;0.20;;
11344;SDS011;5727;42.600;23.028;2023-08-08T12:30:52;0.67;;;0.43;;
11344;SDS011;5727;42.600;23.028;2023-08-08T12:33:19;0.50;;;0.30;;
11344;SDS011;5727;42.600;23.028;2023-08-08T12:35:46;0.53;;;0.30;;
11344;SDS011;5727;42.600;23.028;2023-08-08T12:38:13;0.70;;;0.30;;
11344;SDS011;5727;42.600;23.028;2023-08-08T12:40:41;0.70;;;0.40;;
11344;SDS011;5727;42.600;23.028;2023-08-08T12:43:09;1.63;;;0.50;;
11344;SDS011;5727;42.600;23.028;2023-08-08T12:45:39;0.30;;;0.30;;
11344;SDS011;5727;42.600;23.028;2023-08-08T12:48:06;0.70;;;0.37;;
11344;SDS011;5727;42.600;23.028;2023-08-08T12:50:33;0.50;;;0.30;;
11344;SDS011;5727;42.600;23.028;2023-08-08T12:53:00;0.73;;;0.30;;
11344;SDS011;5727;42.600;23.028;2023-08-08T12:55:27;0.87;;;0.40;;
11344;SDS011;5727;42.600;23.028;2023-08-08T12:57:53;0.20;;;0.20;;
11344;SDS011;5727;42.600;23.028;2023-08-08T13:00:20;0.30;;;0.20;;
11344;SDS011;5727;42.600;23.028;2023-08-08T13:02:48;0.63;;;0.40;;
11344;SDS011;5727;42.600;23.028;2023-08-08T13:05:15;0.50;;;0.20;;
11344;SDS011;5727;42.600;23.028;2023-08-08T13:07:42;0.43;;;0.30;;
11344;SDS011;5727;42.600;23.028;2023-08-08T13:10:09;0.95;;;0.20;;
11344;SDS011;5727;42.600;23.028;2023-08-08T13:12:36;0.50;;;0.30;;
11344;SDS011;5727;42.600;23.028;2023-08-08T13:15:03;1.23;;;0.30;;
11344;SDS011;5727;42.600;23.028;2023-08-08T13:17:32;1.20;;;0.40;;
11344;SDS011;5727;42.600;23.028;2023-08-08T13:20:00;0.73;;;0.32;;
11344;SDS011;5727;42.600;23.028;2023-08-08T13:22:27;1.65;;;0.30;;
11344;SDS011;5727;42.600;23.028;2023-08-08T13:24:54;0.43;;;0.30;;
11344;SDS011;5727;42.600;23.028;2023-08-08T13:27:20;0.88;;;0.50;;
11344;SDS011;5727;42.600;23.028;2023-08-08T13:29:47;1.25;;;0.30;;
11344;SDS011;5727;42.600;23.028;2023-08-08T13:32:14;0.50;;;0.20;;
11344;SDS011;5727;42.600;23.028;2023-08-08T13:34:40;1.95;;;0.30;;
11344;SDS011;5727;42.600;23.028;2023-08-08T13:37:08;1.23;;;0.20;;
11344;SDS011;5727;42.600;23.028;2023-08-08T13:39:35;0.40;;;0.30;;
11344;SDS011;5727;42.600;23.028;2023-08-08T13:42:02;0.70;;;0.32;;
11344;SDS011;5727;42.600;23.028;2023-08-08T13:44:29;0.70;;;0.30;;
11344;SDS011;5727;42.600;23.028;2023-08-08T13:46:56;1.08;;;0.30;;
11344;SDS011;5727;42.600;23.028;2023-08-08T13:49:23;0.45;;;0.20;;
11344;SDS011;5727;42.600;23.028;2023-08-08T13:51:51;0.20;;;0.20;;
11344;SDS011;5727;42.600;23.028;2023-08-08T13:54:20;2.63;;;0.30;;
11344;SDS011;5727;42.600;23.028;2023-08-08T13:56:46;0.32;;;0.20;;
11344;SDS011;5727;42.600;23.028;2023-08-08T13:59:13;0.40;;;0.30;;
11344;SDS011;5727;42.600;23.028;2023-08-08T14:01:40;0.50;;;0.40;;
11344;SDS011;5727;42.600;23.028;2023-08-08T14:04:08;0.37;;;0.30;;
11344;SDS011;5727;42.600;23.028;2023-08-08T14:06:34;0.97;;;0.40;;
11344;SDS011;5727;42.600;23.028;2023-08-08T14:09:01;0.32;;;0.30;;
11344;SDS011;5727;42.600;23.028;2023-08-08T14:11:30;0.50;;;0.30;;
11344;SDS011;5727;42.600;23.028;2023-08-08T14:13:57;1.40;;;0.50;;
11344;SDS011;5727;42.600;23.028;2023-08-08T14:16:24;0.80;;;0.30;;
11344;SDS011;5727;42.600;23.028;2023-08-08T14:18:50;0.90;;;0.30;;
11344;SDS011;5727;42.600;23.028;2023-08-08T14:21:17;0.63;;;0.40;;
11344;SDS011;5727;42.600;23.028;2023-08-08T14:23:44;0.50;;;0.37;;
11344;SDS011;5727;42.600;23.028;2023-08-08T14:26:12;0.20;;;0.20;;
11344;SDS011;5727;42.600;23.028;2023-08-08T14:28:40;0.83;;;0.40;;
11344;SDS011;5727;42.600;23.028;2023-08-08T14:31:07;0.50;;;0.30;;
11344;SDS011;5727;42.600;23.028;2023-08-08T14:33:34;1.30;;;0.30;;
11344;SDS011;5727;42.600;23.028;2023-08-08T14:36:01;2.23;;;0.47;;
11344;SDS011;5727;42.600;23.028;2023-08-08T14:38:27;0.43;;;0.33;;
11344;SDS011;5727;42.600;23.028;2023-08-08T14:40:54;0.70;;;0.40;;
11344;SDS011;5727;42.600;23.028;2023-08-08T14:43:21;1.58;;;0.30;;
11344;SDS011;5727;42.600;23.028;2023-08-08T14:45:50;1.17;;;0.28;;
11344;SDS011;5727;42.600;23.028;2023-08-08T14:48:17;0.52;;;0.20;;
11344;SDS011;5727;42.600;23.028;2023-08-08T14:50:43;1.20;;;0.28;;
11344;SDS011;5727;42.600;23.028;2023-08-08T14:53:10;1.67;;;0.30;;